Time;durP1;ratioP1;P1;durP2;ratioP2;P2;SDS_P1;SDS_P2;PMS_P1;PMS_P2;Temp;Humidity;BMP_temperature;BMP_pressure;BME280_temperature;BME280_humidity;BME280_pressure;Samples;Min_cycle;Max_cycle;Signal;HPM_P1;HPM_P2
2023/09/30 00:00:00;;;;;;;19.60;13.57;;;;;;;20.90;53.50;101744.47;6081433;23;20022;-81
2023/09/30 00:02:27;;;;;;;17.80;12.93;;;;;;;20.83;53.19;101730.00;6081633;23;20464;-82
2023/09/30 00:05:00;;;;;;;19.63;12.60;;;;;;;20.98;53.12;101747.13;6051915;23;20028;-81
2023/09/30 00:07:26;;;;;;;19.45;13.02;;;;;;;20.98;52.90;101747.13;6065037;23;20088;-82
2023/09/30 00:09:53;;;;;;;19.85;12.80;;;;;;;20.99;53.04;101745.25;6072435;23;20022;-81
2023/09/30 00:12:20;;;;;;;20.45;12.43;;;;;;;20.98;53.15;101741.72;6053442;23;20018;-81
2023/09/30 00:14:50;;;;;;;17.85;12.30;;;;;;;20.64;53.25;101698.88;6082271;23;20084;-82
2023/09/30 00:17:24;;;;;;;21.42;12.75;;;;;;;20.45;52.86;101676.66;6089008;23;20034;-81
2023/09/30 00:19:54;;;;;;;20.63;11.88;;;;;;;20.67;53.48;101715.53;6093706;23;20030;-81
2023/09/30 00:22:21;;;;;;;20.75;12.48;;;;;;;20.92;53.41;101750.50;6064358;23;20029;-81
2023/09/30 00:24:48;;;;;;;20.95;12.45;;;;;;;20.81;53.33;101726.63;6069645;23;20032;-81
2023/09/30 00:27:14;;;;;;;21.65;12.68;;;;;;;20.77;53.18;101728.00;6059004;23;20386;-81
2023/09/30 00:29:41;;;;;;;18.58;12.73;;;;;;;20.55;52.85;101692.69;6046977;23;20022;-81
2023/09/30 00:32:08;;;;;;;20.55;12.27;;;;;;;20.75;52.94;101728.16;6046961;23;20026;-81
2023/09/30 00:34:38;;;;;;;18.50;12.05;;;;;;;20.73;53.05;101732.03;6050187;23;20101;-81
2023/09/30 00:37:05;;;;;;;26.77;12.45;;;;;;;20.42;53.36;101684.28;6068302;23;20021;-83
2023/09/30 00:39:41;;;;;;;20.60;11.45;;;;;;;20.08;53.59;101627.97;6048520;23;20568;-82
2023/09/30 00:42:10;;;;;;;20.80;12.93;;;;;;;20.28;53.41;101654.31;6059786;23;20484;-81
2023/09/30 00:44:37;;;;;;;17.65;12.15;;;;;;;20.64;53.87;101713.22;6080442;23;20246;-81
2023/09/30 00:47:04;;;;;;;19.33;11.98;;;;;;;20.66;54.02;101718.44;6063627;23;20124;-81
2023/09/30 00:49:37;;;;;;;22.77;12.75;;;;;;;20.63;54.12;101729.56;6081012;23;20041;-82
2023/09/30 00:52:10;;;;;;;19.10;12.35;;;;;;;20.40;54.06;101697.94;6078134;23;20081;-81
2023/09/30 00:54:38;;;;;;;19.15;13.00;;;;;;;20.05;54.04;101650.72;6092156;23;20022;-81
2023/09/30 00:57:07;;;;;;;26.30;13.20;;;;;;;20.54;54.14;101736.84;6076290;23;20024;-80
2023/09/30 00:59:37;;;;;;;19.30;12.85;;;;;;;19.97;54.23;101648.88;6070123;23;20022;-82
2023/09/30 01:02:06;;;;;;;19.38;11.90;;;;;;;19.92;54.35;101639.63;6068637;23;20092;-81
2023/09/30 01:04:36;;;;;;;22.35;12.50;;;;;;;20.11;54.55;101676.97;6055150;23;20254;-82
2023/09/30 01:07:04;;;;;;;21.40;12.95;;;;;;;20.42;54.47;101738.22;6061360;23;20093;-82
2023/09/30 01:09:36;;;;;;;21.48;12.85;;;;;;;20.28;54.40;101719.03;6069726;23;20360;-82
2023/09/30 01:12:10;;;;;;;19.92;12.50;;;;;;;20.18;54.75;101696.00;6077582;23;20247;-82
2023/09/30 01:14:42;;;;;;;18.27;12.45;;;;;;;20.07;54.91;101697.19;6070395;23;20018;-82
2023/09/30 01:17:09;;;;;;;20.38;12.95;;;;;;;20.06;55.02;101707.13;6086957;23;20377;-80
2023/09/30 01:19:36;;;;;;;15.48;11.98;;;;;;;19.87;55.16;101674.34;6072571;23;20866;-81
2023/09/30 01:22:04;;;;;;;17.35;12.60;;;;;;;19.69;54.89;101640.38;6049645;23;20304;-81
2023/09/30 01:24:42;;;;;;;18.85;12.30;;;;;;;20.24;55.36;101736.59;6079489;23;20034;-81
2023/09/30 01:27:10;;;;;;;23.45;12.60;;;;;;;20.20;55.50;101729.84;6068452;23;20089;-82
2023/09/30 01:29:38;;;;;;;20.38;12.35;;;;;;;20.26;55.48;101733.72;6076057;23;20184;-81
2023/09/30 01:32:11;;;;;;;19.15;13.02;;;;;;;20.02;55.19;101695.00;6076900;23;20022;-81
2023/09/30 01:34:41;;;;;;;21.48;12.40;;;;;;;20.11;55.24;101709.31;6062812;23;20557;-81
2023/09/30 01:37:13;;;;;;;22.35;13.35;;;;;;;20.22;55.35;101729.66;6058124;23;20412;-81
2023/09/30 01:39:40;;;;;;;22.88;12.50;;;;;;;19.54;55.22;101620.47;6082449;23;20457;-80
2023/09/30 01:42:13;;;;;;;19.40;11.93;;;;;;;20.16;54.97;101724.97;6048936;23;20310;-81
2023/09/30 01:44:48;;;;;;;17.08;12.77;;;;;;;20.02;55.28;101704.94;6021686;23;20469;-80
2023/09/30 01:47:23;;;;;;;15.63;12.10;;;;;;;20.12;55.24;101712.84;6039871;23;20030;-80
2023/09/30 01:49:50;;;;;;;16.63;11.45;;;;;;;19.96;55.29;101689.50;6047186;23;20276;-80
2023/09/30 01:52:17;;;;;;;19.25;12.07;;;;;;;20.10;55.52;101715.72;6070144;23;20370;-80
2023/09/30 01:54:43;;;;;;;14.73;11.50;;;;;;;19.86;55.39;101670.81;6073089;23;20018;-79
2023/09/30 01:57:10;;;;;;;16.23;11.60;;;;;;;20.07;55.31;101702.59;6082206;23;20062;-80
2023/09/30 01:59:37;;;;;;;20.48;11.68;;;;;;;20.08;55.24;101700.75;6057755;23;20025;-82
2023/09/30 02:02:04;;;;;;;15.45;11.23;;;;;;;20.09;55.16;101711.34;6072772;23;20026;-81
2023/09/30 02:04:31;;;;;;;14.95;11.65;;;;;;;20.08;55.17;101698.06;6103892;23;20100;-81
2023/09/30 02:06:58;;;;;;;20.55;12.52;;;;;;;20.06;54.92;101700.91;6083394;23;20049;-82
2023/09/30 02:09:29;;;;;;;15.00;11.43;;;;;;;20.13;54.95;101701.91;6081717;23;20053;-82
2023/09/30 02:12:02;;;;;;;19.65;12.15;;;;;;;20.14;54.87;101708.13;6067118;23;20042;-81
2023/09/30 02:14:32;;;;;;;16.13;12.65;;;;;;;19.77;55.12;101642.19;6068163;23;20248;-81
2023/09/30 02:16:59;;;;;;;15.23;12.57;;;;;;;20.22;54.95;101695.47;6069952;23;20509;-81
2023/09/30 02:19:27;;;;;;;22.95;11.77;;;;;;;20.28;55.07;101694.78;6042208;23;20321;-82
2023/09/30 02:21:54;;;;;;;22.65;12.65;;;;;;;20.36;54.94;101690.38;6046157;23;20508;-81
2023/09/30 02:24:25;;;;;;;14.48;11.52;;;;;;;20.46;54.73;101691.84;6060041;23;20022;-82
2023/09/30 02:27:00;;;;;;;20.27;12.85;;;;;;;20.15;55.00;101662.13;6074901;23;20390;-81
2023/09/30 02:29:36;;;;;;;14.23;11.93;;;;;;;20.25;55.87;101705.91;6051386;23;20272;-80
2023/09/30 02:32:05;;;;;;;20.20;13.32;;;;;;;20.16;56.24;101692.63;6069638;23;20068;-80
2023/09/30 02:34:33;;;;;;;17.33;12.23;;;;;;;20.08;56.62;101701.59;6063705;23;20472;-80
2023/09/30 02:37:03;;;;;;;18.10;12.80;;;;;;;19.99;56.40;101683.75;6067369;23;20516;-80
2023/09/30 02:39:30;;;;;;;18.17;13.02;;;;;;;19.94;55.90;101660.00;6065115;23;20801;-82
2023/09/30 02:42:02;;;;;;;20.92;12.75;;;;;;;20.04;55.68;101675.97;6047651;23;20207;-80
2023/09/30 02:44:35;;;;;;;24.98;13.63;;;;;;;20.11;56.74;101703.94;6093166;23;20021;-80
2023/09/30 02:47:02;;;;;;;18.15;13.35;;;;;;;19.95;56.51;101688.66;6045063;23;20455;-81
2023/09/30 02:49:33;;;;;;;15.75;13.05;;;;;;;20.00;56.71;101706.97;6042665;23;20026;-81
2023/09/30 02:52:00;;;;;;;15.10;12.02;;;;;;;19.97;57.22;101707.31;6039199;23;20022;-81
2023/09/30 02:54:27;;;;;;;21.75;13.55;;;;;;;19.89;57.14;101702.78;6056849;23;20750;-81
2023/09/30 02:56:54;;;;;;;16.90;13.18;;;;;;;19.85;57.33;101698.75;6081082;23;20089;-81
2023/09/30 02:59:22;;;;;;;16.88;12.50;;;;;;;19.78;57.72;101697.75;6062376;23;20371;-81
2023/09/30 03:01:50;;;;;;;18.98;13.80;;;;;;;19.79;57.63;101707.53;6050843;23;20580;-82
2023/09/30 03:04:25;;;;;;;19.15;12.90;;;;;;;19.80;57.84;101707.34;6083310;23;20491;-81
2023/09/30 03:06:56;;;;;;;16.60;13.07;;;;;;;19.80;57.63;101701.13;6058018;23;20376;-81
2023/09/30 03:09:22;;;;;;;16.52;13.15;;;;;;;19.46;57.49;101644.72;6068531;23;20018;-82
2023/09/30 03:11:49;;;;;;;16.27;12.85;;;;;;;19.79;57.66;101697.59;6085611;23;20029;-82
2023/09/30 03:14:21;;;;;;;22.35;13.50;;;;;;;19.73;57.62;101695.56;6079545;23;20578;-81
2023/09/30 03:16:53;;;;;;;18.77;13.02;;;;;;;19.76;57.48;101695.25;6077487;23;20026;-82
2023/09/30 03:19:21;;;;;;;15.95;12.82;;;;;;;19.75;57.85;101696.25;6070987;23;20076;-80
2023/09/30 03:21:51;;;;;;;16.33;12.15;;;;;;;19.73;57.75;101690.19;6088996;23;20028;-81
2023/09/30 03:24:24;;;;;;;17.33;12.88;;;;;;;19.60;57.73;101668.28;6123409;23;20026;-82
2023/09/30 03:26:51;;;;;;;26.45;12.85;;;;;;;19.70;58.07;101692.38;6080770;23;20069;-81
2023/09/30 03:29:18;;;;;;;18.92;13.18;;;;;;;19.66;57.92;101689.16;6093859;23;20394;-81
2023/09/30 03:31:45;;;;;;;19.58;14.35;;;;;;;19.46;58.20;101666.28;6092575;23;20386;-82
2023/09/30 03:34:13;;;;;;;19.63;12.65;;;;;;;19.27;58.28;101641.34;6089598;23;20125;-82
2023/09/30 03:36:40;;;;;;;18.50;13.38;;;;;;;19.56;58.12;101693.88;6096883;23;20030;-81
2023/09/30 03:39:08;;;;;;;19.25;13.65;;;;;;;19.55;58.25;101703.81;6080285;23;20056;-82
2023/09/30 03:41:36;;;;;;;17.23;12.48;;;;;;;19.60;57.83;101692.53;6080132;23;20029;-81
2023/09/30 03:44:04;;;;;;;16.80;13.13;;;;;;;19.64;57.59;101691.19;6081970;23;20105;-81
2023/09/30 03:46:31;;;;;;;18.92;14.13;;;;;;;19.54;58.10;101701.25;6084356;23;20018;-81
2023/09/30 03:48:59;;;;;;;21.02;13.40;;;;;;;19.41;58.13;101683.75;6071702;23;20395;-80
2023/09/30 03:51:26;;;;;;;18.10;14.43;;;;;;;18.96;58.16;101616.97;6100976;23;20108;-82
2023/09/30 03:53:53;;;;;;;19.27;13.85;;;;;;;19.36;58.17;101696.91;6091928;23;20029;-81
2023/09/30 03:56:22;;;;;;;19.83;14.15;;;;;;;19.10;58.51;101666.59;6090680;23;20032;-81
2023/09/30 03:58:49;;;;;;;20.33;13.70;;;;;;;18.95;58.56;101652.94;6091420;23;20462;-81
2023/09/30 04:01:19;;;;;;;22.38;14.88;;;;;;;19.13;59.09;101699.41;6089354;23;20104;-81
2023/09/30 04:03:46;;;;;;;21.95;14.65;;;;;;;19.21;59.34;101707.47;6076202;23;20340;-82
2023/09/30 04:06:13;;;;;;;22.02;14.63;;;;;;;19.18;59.23;101701.59;6091861;23;20078;-82
2023/09/30 04:08:40;;;;;;;20.70;14.43;;;;;;;18.95;59.28;101664.53;6075910;23;20472;-81
2023/09/30 04:11:07;;;;;;;18.42;13.90;;;;;;;19.13;59.17;101698.56;6089889;23;20583;-81
2023/09/30 04:13:36;;;;;;;21.17;14.57;;;;;;;19.05;59.21;101687.78;6097967;23;20417;-81
2023/09/30 04:16:03;;;;;;;20.13;14.55;;;;;;;19.02;59.11;101690.81;6077271;23;20054;-81
2023/09/30 04:18:30;;;;;;;24.63;14.73;;;;;;;19.12;58.98;101704.94;6085356;23;20393;-81
2023/09/30 04:20:58;;;;;;;19.20;15.73;;;;;;;19.18;59.21;101709.69;6065836;23;20131;-80
2023/09/30 04:23:30;;;;;;;22.30;14.95;;;;;;;18.87;59.61;101663.72;6076876;23;20920;-83
2023/09/30 04:26:01;;;;;;;21.10;15.35;;;;;;;19.08;59.48;101717.03;6067193;23;20298;-80
2023/09/30 04:28:28;;;;;;;21.13;14.85;;;;;;;18.64;59.62;101644.59;6105295;23;20022;-82
2023/09/30 04:30:56;;;;;;;17.98;15.23;;;;;;;18.96;59.73;101719.22;6088135;23;20073;-81
2023/09/30 04:33:24;;;;;;;22.17;15.30;;;;;;;18.88;59.47;101705.72;6093966;23;20029;-82
2023/09/30 04:35:57;;;;;;;18.90;15.52;;;;;;;18.96;59.54;101732.69;6095570;23;20022;-81
2023/09/30 04:38:30;;;;;;;23.90;15.48;;;;;;;18.68;60.12;101705.16;6074023;23;20489;-82
2023/09/30 04:40:57;;;;;;;;;;;;;;;18.76;60.72;101745.53;6071117;23;20057;-81
2023/09/30 04:43:28;;;;;;;21.25;15.40;;;;;;;18.57;61.23;101703.59;6090848;23;20084;-81
2023/09/30 04:45:58;;;;;;;20.80;14.52;;;;;;;18.71;61.49;101731.72;6062238;23;20026;-82
2023/09/30 04:48:28;;;;;;;20.55;15.13;;;;;;;18.70;61.28;101728.19;6082259;23;20365;-81
2023/09/30 04:50:55;;;;;;;22.05;15.88;;;;;;;18.70;61.45;101724.66;6079945;23;20484;-82
2023/09/30 04:53:23;;;;;;;21.88;16.05;;;;;;;18.53;61.67;101700.38;6054492;23;20394;-80
2023/09/30 04:55:50;;;;;;;22.88;15.30;;;;;;;18.58;61.64;101708.81;6073035;23;20076;-80
2023/09/30 04:58:17;;;;;;;22.38;15.35;;;;;;;18.32;61.18;101655.09;6059253;23;20022;-82
2023/09/30 05:00:43;;;;;;;22.77;15.75;;;;;;;18.36;61.32;101667.22;6074430;23;20258;-81
2023/09/30 05:03:14;;;;;;;19.33;15.33;;;;;;;18.70;61.13;101721.97;6062512;23;20026;-82
2023/09/30 05:05:44;;;;;;;20.73;14.98;;;;;;;18.29;61.38;101670.72;6077073;23;20620;-79
2023/09/30 05:08:13;;;;;;;21.35;15.30;;;;;;;18.60;61.56;101718.56;6091754;23;20591;-79
2023/09/30 05:10:40;;;;;;;16.70;14.18;;;;;;;18.58;61.99;101730.31;6095903;23;20108;-80
2023/09/30 05:13:08;;;;;;;24.90;14.60;;;;;;;18.53;62.11;101713.00;6080575;23;20073;-80
2023/09/30 05:15:35;;;;;;;21.00;15.27;;;;;;;18.64;62.54;101747.66;6099840;23;20021;-80
2023/09/30 05:18:08;;;;;;;19.35;16.00;;;;;;;18.59;62.34;101744.59;6085545;23;20092;-80
2023/09/30 05:20:36;;;;;;;21.00;15.20;;;;;;;18.62;62.39;101749.69;6097968;23;20041;-81
2023/09/30 05:23:04;;;;;;;18.75;14.80;;;;;;;18.67;62.36;101746.50;6101056;23;20026;-81
2023/09/30 05:25:30;;;;;;;21.85;15.30;;;;;;;18.61;62.23;101728.31;6096446;23;20033;-80
2023/09/30 05:28:05;;;;;;;22.25;15.45;;;;;;;18.39;62.18;101679.47;6087142;23;20258;-81
2023/09/30 05:30:33;;;;;;;24.38;14.38;;;;;;;18.69;62.27;101722.94;6081949;23;20018;-79
2023/09/30 05:33:01;;;;;;;21.33;15.30;;;;;;;18.80;62.50;101744.22;6098768;23;20188;-79
2023/09/30 05:35:28;;;;;;;23.88;15.35;;;;;;;18.38;62.51;101650.09;6081306;23;20034;-80
2023/09/30 05:37:55;;;;;;;26.58;15.90;;;;;;;18.90;63.09;101744.91;6091653;23;20028;-81
2023/09/30 05:40:30;;;;;;;31.20;17.75;;;;;;;17.84;62.90;101567.03;6117361;23;20346;-81
2023/09/30 05:43:13;;;;;;;25.02;16.55;;;;;;;18.94;62.88;101743.59;6074551;23;20326;-81
2023/09/30 05:45:48;;;;;;;28.05;17.63;;;;;;;18.90;62.80;101744.91;6067274;23;20026;-81
2023/09/30 05:48:16;;;;;;;29.25;16.58;;;;;;;18.91;63.04;101749.31;6088463;23;20349;-79
2023/09/30 05:50:43;;;;;;;25.42;17.17;;;;;;;18.82;62.62;101728.75;6076867;23;20053;-79
2023/09/30 05:53:11;;;;;;;21.80;15.43;;;;;;;18.69;63.02;101706.81;6080021;23;20569;-80
2023/09/30 05:55:38;;;;;;;32.30;17.63;;;;;;;18.53;62.83;101683.41;6058354;23;20018;-79
2023/09/30 05:58:05;;;;;;;21.40;16.17;;;;;;;18.95;63.23;101739.88;6087572;23;20049;-78
2023/09/30 06:00:35;;;;;;;25.67;16.42;;;;;;;18.70;63.01;101703.97;6088301;23;20042;-79
2023/09/30 06:03:06;;;;;;;23.02;15.45;;;;;;;18.99;62.68;101748.50;6083696;23;20026;-82
2023/09/30 06:05:33;;;;;;;26.17;17.00;;;;;;;18.92;62.86;101737.53;6082240;23;20106;-80
2023/09/30 06:08:08;;;;;;;25.77;15.10;;;;;;;19.14;63.25;101754.06;6072027;23;20408;-82
2023/09/30 06:10:42;;;;;;;18.67;15.30;;;;;;;19.15;63.31;101744.97;6101617;23;20014;-80
2023/09/30 06:13:16;;;;;;;26.77;16.13;;;;;;;19.13;63.66;101742.47;6054982;23;20029;-82
2023/09/30 06:15:46;;;;;;;19.65;15.82;;;;;;;19.27;63.33;101754.44;6081331;23;20018;-79
2023/09/30 06:18:15;;;;;;;22.35;15.20;;;;;;;19.28;63.13;101753.44;6085284;23;20084;-80
2023/09/30 06:20:42;;;;;;;19.98;14.70;;;;;;;18.70;61.81;101649.34;6094625;23;20520;-80
2023/09/30 06:23:09;;;;;;;18.02;13.77;;;;;;;19.43;62.05;101770.63;6092687;23;20458;-80
2023/09/30 06:25:37;;;;;;;20.00;13.85;;;;;;;19.39;61.93;101747.75;6105161;23;20399;-81
2023/09/30 06:28:04;;;;;;;24.15;14.38;;;;;;;19.18;61.56;101707.00;6084936;23;20080;-80
2023/09/30 06:30:33;;;;;;;20.92;13.57;;;;;;;19.56;61.48;101764.72;6096390;23;20159;-81
2023/09/30 06:33:01;;;;;;;22.48;13.27;;;;;;;19.56;61.15;101753.94;6088948;23;20457;-81
2023/09/30 06:35:30;;;;;;;17.30;13.10;;;;;;;19.73;61.58;101778.25;6098688;23;20329;-81
2023/09/30 06:38:05;;;;;;;16.83;12.75;;;;;;;19.60;60.74;101754.47;6095263;23;20337;-80
2023/09/30 06:40:38;;;;;;;15.32;11.77;;;;;;;19.66;60.80;101751.13;6086388;23;20081;-79
2023/09/30 06:43:11;;;;;;;17.48;12.57;;;;;;;19.93;60.38;101789.50;6077059;23;20528;-81
2023/09/30 06:45:44;;;;;;;19.23;11.60;;;;;;;19.68;59.11;101724.88;6079650;23;20014;-80
2023/09/30 06:48:17;;;;;;;18.38;11.80;;;;;;;19.87;57.95;101722.84;6071009;23;20274;-79
2023/09/30 06:50:54;;;;;;;26.05;11.68;;;;;;;20.22;58.41;101781.75;6069040;23;20742;-82
2023/09/30 06:53:30;;;;;;;16.48;13.07;;;;;;;19.96;59.18;101738.00;6048934;23;20022;-80
2023/09/30 06:55:57;;;;;;;14.40;12.35;;;;;;;20.15;59.95;101758.34;6067503;23;20077;-79
2023/09/30 06:58:24;;;;;;;20.23;12.68;;;;;;;20.25;58.22;101770.63;6077144;23;20612;-79
2023/09/30 07:00:53;;;;;;;18.52;12.82;;;;;;;20.41;57.98;101774.28;6062452;23;20026;-79
2023/09/30 07:03:25;;;;;;;15.27;12.23;;;;;;;20.50;58.72;101789.44;6094509;23;20552;-83
2023/09/30 07:05:54;;;;;;;18.33;12.48;;;;;;;20.42;58.11;101765.19;6070354;23;20018;-81
2023/09/30 07:08:21;;;;;;;18.33;13.43;;;;;;;20.54;58.44;101771.06;6082086;23;20025;-80
2023/09/30 07:10:56;;;;;;;21.20;14.05;;;;;;;20.57;57.14;101776.97;6087754;23;20017;-81
2023/09/30 07:13:31;;;;;;;21.00;13.68;;;;;;;20.76;57.35;101788.38;6029022;23;20032;-81
2023/09/30 07:16:01;;;;;;;18.00;13.90;;;;;;;20.83;57.23;101783.97;6048925;23;20032;-79
2023/09/30 07:18:29;;;;;;;29.95;15.13;;;;;;;20.49;57.59;101718.47;6025711;23;20022;-83
2023/09/30 07:21:00;;;;;;;23.17;14.05;;;;;;;20.67;57.29;101737.13;6038136;23;20517;-83
2023/09/30 07:23:31;;;;;;;24.13;14.27;;;;;;;20.99;57.45;101777.63;6076445;23;20480;-81
2023/09/30 07:25:59;;;;;;;20.42;14.68;;;;;;;21.04;57.03;101776.09;6078398;23;20402;-81
2023/09/30 07:28:26;;;;;;;17.70;12.52;;;;;;;21.11;56.04;101779.75;6046921;23;20096;-81
2023/09/30 07:30:54;;;;;;;18.13;12.18;;;;;;;21.23;55.34;101769.41;6064690;23;20026;-82
2023/09/30 07:33:25;;;;;;;20.60;12.88;;;;;;;21.08;55.71;101736.09;6083358;23;20109;-82
2023/09/30 07:35:52;;;;;;;20.25;11.80;;;;;;;21.34;54.42;101760.06;6095152;23;20045;-81
2023/09/30 07:38:22;;;;;;;13.85;12.05;;;;;;;21.46;54.33;101768.63;6072302;23;20022;-82
2023/09/30 07:40:51;;;;;;;19.02;11.52;;;;;;;21.35;54.71;101742.81;6082148;23;20073;-81
2023/09/30 07:43:23;;;;;;;20.67;11.85;;;;;;;21.52;54.31;101766.03;6049337;23;20466;-82
2023/09/30 07:45:57;;;;;;;14.05;11.40;;;;;;;21.62;54.46;101775.75;6027496;23;20101;-82
2023/09/30 07:48:36;;;;;;;16.38;11.68;;;;;;;21.69;53.85;101776.72;6017521;23;20624;-82
2023/09/30 07:51:06;;;;;;;16.80;11.95;;;;;;;21.76;53.66;101775.78;6075318;23;20018;-81
2023/09/30 07:53:33;;;;;;;21.58;11.88;;;;;;;21.70;52.10;101741.41;6073520;23;20026;-82
2023/09/30 07:56:00;;;;;;;15.25;11.43;;;;;;;21.81;53.07;101759.03;6083865;23;20836;-81
2023/09/30 07:58:27;;;;;;;23.75;12.10;;;;;;;21.77;52.76;101744.19;6056293;23;20074;-82
2023/09/30 08:01:02;;;;;;;16.65;11.00;;;;;;;21.89;52.30;101761.66;6053336;23;20524;-81
2023/09/30 08:03:36;;;;;;;16.50;12.90;;;;;;;21.92;52.79;101760.47;6065218;23;20018;-82
2023/09/30 08:06:10;;;;;;;19.90;13.15;;;;;;;21.84;52.57;101750.56;6038285;23;20262;-81
2023/09/30 08:08:37;;;;;;;21.52;13.00;;;;;;;21.66;51.94;101715.75;6065494;23;20033;-81
2023/09/30 08:11:05;;;;;;;19.27;11.98;;;;;;;22.24;51.87;101813.44;6092036;23;20543;-81
2023/09/30 08:13:39;;;;;;;17.33;11.68;;;;;;;22.01;51.82;101769.34;6088917;23;20524;-81
2023/09/30 08:16:05;;;;;;;21.70;12.38;;;;;;;22.30;52.09;101820.78;6099789;23;20460;-82
2023/09/30 08:18:33;;;;;;;20.27;12.82;;;;;;;22.38;51.52;101823.44;6071721;23;20412;-82
2023/09/30 08:21:00;;;;;;;21.27;12.85;;;;;;;21.87;50.84;101739.41;6042458;23;20692;-81
2023/09/30 08:23:27;;;;;;;18.20;11.50;;;;;;;22.37;50.18;101801.97;6077333;23;20028;-81
2023/09/30 08:25:58;;;;;;;14.30;11.35;;;;;;;22.57;49.87;101827.47;6085654;23;20022;-82
2023/09/30 08:28:25;;;;;;;18.08;11.05;;;;;;;21.33;50.06;101623.31;6086594;23;20453;-83
2023/09/30 08:30:54;;;;;;;15.38;11.70;;;;;;;22.69;49.55;101833.22;6077579;23;20263;-81
2023/09/30 08:33:22;;;;;;;16.55;11.65;;;;;;;22.71;49.48;101831.19;6077856;23;20333;-81
2023/09/30 08:35:50;;;;;;;16.50;11.05;;;;;;;22.75;49.64;101835.22;6078681;23;20056;-81
2023/09/30 08:38:17;;;;;;;16.83;12.60;;;;;;;22.95;48.79;101835.47;6075857;23;20097;-81
2023/09/30 08:40:46;;;;;;;15.38;11.85;;;;;;;22.91;48.74;101811.66;6026570;23;20774;-80
2023/09/30 08:43:24;;;;;;;21.48;11.63;;;;;;;23.03;48.82;101838.13;6063296;23;20495;-82
2023/09/30 08:45:53;;;;;;;17.75;11.05;;;;;;;23.02;49.32;101830.19;6069838;23;20258;-81
2023/09/30 08:48:24;;;;;;;17.85;11.15;;;;;;;23.20;48.81;101848.72;6078819;23;20022;-81
2023/09/30 08:50:53;;;;;;;19.95;12.00;;;;;;;23.22;48.82;101858.34;6087925;23;20022;-80
2023/09/30 08:53:20;;;;;;;12.20;10.30;;;;;;;23.20;48.35;101854.97;6077857;23;20026;-82
2023/09/30 08:55:48;;;;;;;17.02;11.05;;;;;;;23.28;48.38;101854.03;6086071;23;20033;-81
2023/09/30 08:58:16;;;;;;;12.55;10.68;;;;;;;23.37;48.07;101852.03;6031713;23;20117;-80
2023/09/30 09:00:43;;;;;;;11.82;9.93;;;;;;;23.49;48.26;101855.94;6088702;23;20026;-81
2023/09/30 09:03:09;;;;;;;14.10;10.70;;;;;;;23.61;47.75;101851.69;6099550;23;20502;-81
2023/09/30 09:05:41;;;;;;;14.75;11.05;;;;;;;23.75;47.09;101852.72;6021159;23;20720;-82
2023/09/30 09:08:09;;;;;;;15.52;11.32;;;;;;;23.73;47.08;101830.38;6024093;23;20101;-83
2023/09/30 09:11:09;;;;;;;16.17;11.32;;;;;;;24.05;46.62;101849.84;6017965;23;20417;-82
2023/09/30 09:13:56;;;;;;;18.90;12.18;;;;;;;24.25;46.57;101839.19;6022799;23;20040;-82
2023/09/30 09:16:24;;;;;;;17.45;12.45;;;;;;;23.87;45.80;101745.41;6048367;23;20467;-80
2023/09/30 09:18:56;;;;;;;16.38;11.60;;;;;;;24.41;46.02;101809.00;6073417;23;20430;-81
2023/09/30 09:21:26;;;;;;;23.75;14.13;;;;;;;24.56;45.22;101799.94;6107157;23;20319;-81
2023/09/30 09:23:58;;;;;;;28.95;14.35;;;;;;;24.94;45.37;101836.47;6061296;23;20036;-81
2023/09/30 09:26:31;;;;;;;19.30;13.95;;;;;;;25.16;44.95;101842.63;6029154;23;20105;-82
2023/09/30 09:29:07;;;;;;;20.95;14.52;;;;;;;25.22;44.22;101813.88;6029686;23;20495;-81
2023/09/30 09:31:41;;;;;;;28.92;13.50;;;;;;;25.57;43.57;101841.75;6054388;23;20022;-81
2023/09/30 09:34:20;;;;;;;19.83;13.88;;;;;;;25.72;43.92;101836.13;6044996;23;20113;-82
2023/09/30 09:36:54;;;;;;;18.48;12.27;;;;;;;25.77;43.60;101839.06;6079601;23;20048;-80
2023/09/30 09:39:32;;;;;;;19.08;12.60;;;;;;;25.45;43.54;101763.72;6101322;23;20014;-81
2023/09/30 09:42:01;;;;;;;25.13;13.32;;;;;;;25.95;43.83;101810.47;6069918;23;20033;-81
2023/09/30 09:44:29;;;;;;;23.95;13.75;;;;;;;25.86;43.10;101765.47;6085702;23;20021;-81
2023/09/30 09:46:58;;;;;;;18.05;12.75;;;;;;;26.33;43.03;101823.38;6079072;23;20033;-83
2023/09/30 09:49:31;;;;;;;21.10;12.98;;;;;;;26.44;42.47;101815.41;6058883;23;20026;-82
2023/09/30 09:52:00;;;;;;;21.65;14.02;;;;;;;26.52;42.45;101805.34;6042473;23;20058;-82
2023/09/30 09:54:29;;;;;;;17.70;12.52;;;;;;;26.58;42.43;101789.03;6094006;23;20017;-81
2023/09/30 09:56:57;;;;;;;19.63;14.48;;;;;;;26.72;42.05;101806.16;6100555;23;20022;-81
2023/09/30 09:59:25;;;;;;;20.67;12.80;;;;;;;26.55;41.48;101778.53;6101248;23;20675;-81
2023/09/30 10:02:00;;;;;;;19.23;12.70;;;;;;;26.80;41.51;101811.38;6090414;23;20048;-81
2023/09/30 10:04:32;;;;;;;20.00;12.93;;;;;;;26.97;42.11;101816.34;6081450;23;20349;-82
2023/09/30 10:07:04;;;;;;;21.38;13.02;;;;;;;27.03;40.98;101805.41;6074677;23;20652;-80
2023/09/30 10:09:35;;;;;;;18.75;12.98;;;;;;;27.31;40.88;101819.75;6103583;23;20022;-80
2023/09/30 10:12:04;;;;;;;17.95;13.18;;;;;;;27.43;40.87;101815.28;6091033;23;20018;-80
2023/09/30 10:14:33;;;;;;;22.13;12.68;;;;;;;26.79;40.84;101683.56;6082169;23;20107;-80
2023/09/30 10:17:04;;;;;;;18.85;11.40;;;;;;;27.67;40.05;101808.19;6072113;23;20033;-80
2023/09/30 10:19:32;;;;;;;;;;;;;;;27.80;38.91;101804.53;6079147;23;20022;-80
2023/09/30 10:22:21;;;;;;;16.15;12.13;;;;;;;27.61;39.30;101752.63;6100502;23;19917;-79
2023/09/30 10:24:59;;;;;;;24.83;12.65;;;;;;;28.00;39.79;101782.56;6099181;23;20085;-80
2023/09/30 10:27:31;;;;;;;17.42;12.38;;;;;;;28.27;39.21;101802.25;6057700;23;20534;-81
2023/09/30 10:30:18;;;;;;;20.95;13.20;;;;;;;28.21;39.77;101787.63;6081871;23;20173;-81
2023/09/30 10:32:52;;;;;;;19.35;11.50;;;;;;;28.39;38.81;101802.34;6061851;23;20900;-81
2023/09/30 10:35:31;;;;;;;36.00;14.95;;;;;;;28.53;38.95;101806.63;6074699;23;20025;-82
2023/09/30 10:38:27;;;;;;;19.58;13.18;;;;;;;28.72;38.56;101802.03;6075983;23;20422;-82
2023/09/30 10:41:08;;;;;;;18.25;13.43;;;;;;;28.74;38.27;101800.72;6082295;23;20022;-82
2023/09/30 10:43:37;;;;;;;21.15;12.30;;;;;;;28.70;38.66;101815.91;6082002;23;20030;-82
2023/09/30 10:46:33;;;;;;;15.23;12.25;;;;;;;28.41;38.80;101742.88;6071448;23;20316;-81
2023/09/30 10:49:27;;;;;;;24.90;12.65;;;;;;;28.97;38.12;101807.38;6085821;23;20098;-82
2023/09/30 10:52:11;;;;;;;15.23;12.43;;;;;;;29.03;37.98;101795.53;6048399;23;20762;-81
2023/09/30 10:54:44;;;;;;;25.67;12.88;;;;;;;28.27;37.38;101673.94;6024944;23;20204;-81
2023/09/30 10:57:26;;;;;;;21.25;12.02;;;;;;;29.24;37.26;101812.53;6036221;23;20021;-81
2023/09/30 11:00:18;;;;;;;18.57;11.93;;;;;;;29.29;37.09;101820.84;6081962;23;20025;-82
2023/09/30 11:02:50;;;;;;;17.33;12.23;;;;;;;28.90;37.11;101735.56;6094752;23;20528;-81
2023/09/30 11:05:20;;;;;;;17.55;11.10;;;;;;;29.61;36.78;101814.06;6089830;23;20054;-81
2023/09/30 11:08:10;;;;;;;19.13;11.93;;;;;;;29.08;36.33;101710.97;6078506;23;20022;-81
2023/09/30 11:10:50;;;;;;;14.52;11.85;;;;;;;29.50;35.64;101789.41;6032047;23;20141;-82
2023/09/30 11:13:18;;;;;;;16.90;12.55;;;;;;;28.95;35.79;101691.97;6061318;23;20030;-82
2023/09/30 11:16:01;;;;;;;22.08;12.50;;;;;;;28.58;34.95;101637.44;6071080;23;20081;-82
2023/09/30 11:18:29;;;;;;;12.90;11.50;;;;;;;28.73;35.71;101651.50;6081024;23;20041;-80
2023/09/30 11:21:07;;;;;;;17.98;12.32;;;;;;;29.27;35.12;101747.25;6061346;23;20087;-81
2023/09/30 11:23:45;;;;;;;14.93;11.32;;;;;;;29.44;35.15;101736.47;6078988;23;20033;-82